Weather observations for the past three days for
Napa, Napa County Airport
Imperial (Metric)
Date Time (pdt) Wind (mph) Vis. (mi.) Weather Sky Cond. Temperature (ºF) Relative Humidity Wind Chill (°F) Heat Index (°F) Pressure Precipitation (in)
Air Dwpt 6 hour altimeter (in) sea level (mb) 1 hr 3 hr 6 hr
Max. Min.
08 06:54 W 8 10.00 Overcast OVC007 52 50 93% 30.07 1017.5
08 05:54 W 8 10.00 Overcast OVC006 52 50 93% 30.06 1017.0
08 04:54 W 10 10.00 Overcast OVC007 53.1 51.1 53.1 52 93% 30.06 1017.0
08 03:54 W 7 10.00 Overcast OVC007 53.1 51.1 93% 30.06 1016.9
08 02:54 W 9 10.00 Overcast OVC008 52 51.1 97% 30.06 1017.0
08 01:54 W 6 10.00 Overcast OVC007 52 51.1 97% 30.06 1016.9
08 00:54 W 5 10.00 Overcast OVC011 52 51.1 97% 30.06 1017.0
07 23:54 W 6 10.00 Overcast OVC008 53.1 51.1 93% 30.06 1016.9
07 22:54 W 9 10.00 A Few Clouds FEW008 53.1 51.1 71.1 51.1 93% 30.05 1016.8
07 21:54 SW 6 10.00 A Few Clouds FEW009 52 50 93% 30.05 1016.6
07 20:54 W 7 10.00 Fair CLR 55 52 90% 30.03 1016.0
07 19:54 SW 10 10.00 Fair CLR 57.9 54 87% 30.01 1015.2
07 18:54 W 7 10.00 Fair CLR 64 55.9 75% 30.01 1015.2
07 17:54 W 12 10.00 Fair CLR 66 55.9 70% 30.01 1015.3
07 16:54 W 13 10.00 Fair CLR 71.1 57.9 72 55.9 63% 30 1015.1
07 15:54 SW 13 10.00 Fair CLR 71.1 59 66% 30.01 1015.5
07 14:54 S 10 10.00 Fair CLR 70 60.1 71% 30.03 1016.2
07 13:54 S 9 10.00 Fair CLR 66.9 59 76% 30.06 1017.1
07 12:54 S 9 10.00 Fair CLR 64 55.9 75% 30.08 1017.7
07 11:54 Vrbl 3 10.00 Mostly Cloudy BKN011 59 54 83% 30.1 1018.4
07 10:54 W 6 10.00 Overcast OVC007 55.9 53.1 57 52 90% 30.11 1018.8
07 09:54 NW 6 10.00 Overcast OVC005 55 52 90% 30.11 1018.7
07 08:54 NW 7 10.00 Overcast OVC005 54 52 93% 30.11 1018.7
07 07:54 NW 6 10.00 Overcast OVC004 53.1 51.1 93% 30.11 1018.7
07 06:54 W 7 10.00 Overcast OVC004 53.1 51.1 93% 30.1 1018.4
07 05:54 W 7 10.00 Overcast OVC005 53.1 51.1 93% 30.09 1017.9
07 04:54 W 10 10.00 Overcast OVC005 53.1 51.1 54 53.1 93% 30.08 1017.8
07 03:54 W 8 10.00 Overcast OVC007 53.1 51.1 93% 30.08 1017.8
07 02:54 W 9 10.00 Overcast OVC009 53.1 51.1 93% 30.09 1017.9
07 01:54 NW 7 10.00 Overcast OVC009 53.1 51.1 93% 30.1 1018.2
07 00:54 NW 6 10.00 Overcast OVC012 53.1 52 96% 30.1 1018.5
06 23:54 W 7 10.00 Fair CLR 53.1 51.1 93% 30.1 1018.2
06 22:54 W 9 10.00 Light Rain CLR 54 52 71.1 53.1 93% 30.09 1018.0
06 21:54 W 6 10.00 Fair CLR 55 52 90% 30.09 1017.9
06 20:54 W 3 10.00 Fair CLR 55.9 52 87% 30.07 1017.5
06 19:54 W 13 G 23 10.00 Light Rain CLR 59 54 83% 30.05 1016.8
06 18:54 W 20 10.00 Light Rain CLR 62.1 54 75% 30.05 1016.6
06 17:54 W 15 10.00 Fair CLR 66.9 55.9 68% 30.05 1016.6
06 16:54 W 15 10.00 Fair CLR 71.1 57.9 73.9 64 63% 30.05 1016.6
06 15:54 SW 10 10.00 A Few Clouds FEW037 73 57.9 59% 30.06 1017.0
06 14:54 Vrbl 6 10.00 Mostly Cloudy BKN038 72 57 59% 30.09 1017.9
06 13:54 W 6 10.00 Mostly Cloudy BKN039 70 57 64% 30.1 1018.3
06 12:54 SW 5 10.00 Overcast OVC039 68 57 68% 30.12 1019.0
06 11:54 S 7 10.00 Mostly Cloudy BKN040 64.9 55.9 73% 30.14 1019.6
06 10:54 S 6 10.00 Partly Cloudy SCT046 66 55 66 55 68% 30.14 1019.7
06 09:54 S 6 10.00 Partly Cloudy SCT048 63 54 73% 30.14 1019.8
06 08:54 Calm 10.00 A Few Clouds FEW015 60.1 53.1 78% 30.14 1019.8
06 07:54 Calm 10.00 A Few Clouds FEW048 57.9 53.1 84% 30.14 1019.6
06 06:54 W 5 10.00 Overcast OVC048 55 52 90% 30.13 1019.2
06 05:54 W 5 10.00 Overcast OVC047 55 52 90% 30.11 1018.9
06 04:54 W 7 10.00 Overcast OVC045 55 52 55.9 55 90% 30.11 1018.7
06 03:54 W 8 10.00 Overcast OVC045 55.9 52 87% 30.1 1018.2
06 02:54 W 8 10.00 Overcast OVC045 55.9 52 87% 30.09 1018.0
06 01:54 W 10 10.00 Overcast OVC043 55.9 51.1 84% 30.09 1018.1
06 00:54 W 8 10.00 Overcast OVC045 55.9 51.1 84% 30.09 1018.0
05 23:54 W 8 10.00 Overcast OVC042 55.9 52 87% 30.07 1017.5
05 22:54 W 7 10.00 Overcast OVC040 55.9 52 63 55.9 87% 30.06 1017.1
05 21:54 W 10 10.00 Overcast FEW026 OVC040 57 51.1 81% 30.05 1016.7
05 20:54 W 10 10.00 Overcast BKN026 OVC037 57 51.1 81% 30.03 1016.0
05 19:54 W 10 10.00 Overcast OVC028 59 51.1 75% 30 1015.1
05 18:54 W 13 10.00 Overcast OVC026 60.1 52 75% 29.99 1014.6
05 17:54 W 12 10.00 Overcast OVC026 62.1 53.1 73% 29.98 1014.3
05 16:54 S 14 10.00 Overcast OVC035 62.1 55 64.9 59 78% 29.97 1013.9
05 15:54 S 10 10.00 Overcast OVC032 63 53.1 70% 29.97 1014.0
05 14:54 SW 8 10.00 Overcast OVC030 64 54 70% 29.98 1014.3
05 13:54 W 10 10.00 Overcast BKN028 OVC033 64 54 70% 29.98 1014.4
05 12:54 SW 5 10.00 Overcast BKN028 OVC033 63 53.1 70% 29.99 1014.7
05 11:54 Vrbl 7 10.00 Overcast OVC022 61 52 72% 29.99 1014.8
05 10:54 Vrbl 7 10.00 Overcast BKN019 OVC026 59 53.1 60.1 54 81% 29.99 1014.7
05 09:54 W 7 10.00 Overcast SCT015 OVC031 57.9 53.1 84% 29.99 1014.6
05 08:54 W 7 10.00 Mostly Cloudy SCT020 BKN036 55 52 90% 29.98 1014.3
05 07:54 W 6 10.00 Mostly Cloudy FEW008 BKN036 54 52 93% 29.97 1013.9
Date Time (pdt) Wind (mph) Vis. (mi.) Weather Sky Cond. Air Dwpt Max. Min. Relative Humidity Wind Chill (°F) Heat Index (°F) altimeter (in) sea level (mb) 1 hr 3 hr 6 hr
6 hour
Temperature (ºF) Pressure Precipitation (in)